Time;durP1;ratioP1;P1;durP2;ratioP2;P2;SDS_P1;SDS_P2;PMS_P1;PMS_P2;Temp;Humidity;BMP_temperature;BMP_pressure;BME280_temperature;BME280_humidity;BME280_pressure;Samples;Min_cycle;Max_cycle;Signal;HPM_P1;HPM_P2
2023/01/11 00:02:00;;;;;;;6.87;3.93;;;;;;;0.07;100.00;96498.00;5071847;28;20438;-72
2023/01/11 00:04:29;;;;;;;5.60;4.83;;;;;;;0.07;100.00;96493.56;5073111;28;20477;-72
2023/01/11 00:06:56;;;;;;;19.17;6.20;;;;;;;0.21;100.00;96515.44;5071903;28;20444;-72
2023/01/11 00:09:23;;;;;;;20.80;9.50;;;;;;;0.18;100.00;96504.78;5055105;28;20814;-72
2023/01/11 00:11:50;;;;;;;15.20;7.50;;;;;;;0.32;100.00;96505.88;5084786;28;20511;-72
2023/01/11 00:14:16;;;;;;;11.47;5.87;;;;;;;0.27;100.00;96488.44;5073089;28;20528;-72
2023/01/11 00:16:43;;;;;;;8.07;4.80;;;;;;;0.49;100.00;96503.03;5073533;28;20433;-72
2023/01/11 00:19:09;;;;;;;4.07;3.43;;;;;;;0.44;100.00;96493.44;5077767;28;20420;-72
2023/01/11 00:21:36;;;;;;;3.30;2.70;;;;;;;0.59;100.00;96506.44;5054909;28;20471;-72
2023/01/11 00:24:03;;;;;;;4.50;3.50;;;;;;;0.71;100.00;96484.63;5071834;28;20530;-72
2023/01/11 00:26:29;;;;;;;5.00;2.83;;;;;;;0.85;100.00;96516.91;5093153;28;20468;-72
2023/01/11 00:28:56;;;;;;;6.97;3.43;;;;;;;0.66;100.00;96479.41;5097406;28;20408;-72
2023/01/11 00:31:23;;;;;;;4.13;2.77;;;;;;;0.64;100.00;96482.25;5097535;28;20523;-72
2023/01/11 00:33:49;;;;;;;5.03;3.30;;;;;;;0.67;100.00;96488.75;5064625;28;20558;-72
2023/01/11 00:36:16;;;;;;;3.33;2.80;;;;;;;0.84;100.00;96504.94;5054963;28;20492;-72
2023/01/11 00:38:43;;;;;;;5.33;3.20;;;;;;;0.66;100.00;96474.19;5071466;28;20534;-72
2023/01/11 00:49:27;;;;;;;4.43;3.50;;;;;;;0.85;100.00;96489.06;5072309;28;20431;-72
2023/01/11 00:51:54;;;;;;;4.97;2.83;;;;;;;0.77;100.00;96473.94;5070019;28;20498;-72
2023/01/11 00:54:20;;;;;;;5.40;2.77;;;;;;;0.85;100.00;96483.06;5072084;28;20432;-72
2023/01/11 00:56:47;;;;;;;2.80;2.43;;;;;;;0.96;100.00;96505.47;5070900;28;20425;-72
2023/01/11 00:59:14;;;;;;;5.03;2.60;;;;;;;0.87;100.00;96496.59;5070835;28;20507;-72
2023/01/11 01:01:41;;;;;;;4.20;2.90;;;;;;;0.95;100.00;96503.91;5072570;28;20446;-72
2023/01/11 01:04:07;;;;;;;3.70;2.87;;;;;;;0.92;100.00;96493.22;5070848;28;20795;-73
2023/01/11 01:06:34;;;;;;;6.83;2.70;;;;;;;0.83;100.00;96464.34;5071990;28;20454;-72
2023/01/11 01:09:00;;;;;;;5.53;3.17;;;;;;;0.56;100.00;96428.94;5054543;28;20478;-73
2023/01/11 01:11:27;;;;;;;6.37;3.40;;;;;;;0.81;100.00;96461.22;5079185;28;20876;-73
2023/01/11 01:16:41;;;;;;;4.87;2.70;;;;;;;0.46;100.00;96428.94;5070332;28;20436;-73
2023/01/11 01:19:08;;;;;;;6.27;3.40;;;;;;;0.62;100.00;96458.31;5076329;28;20466;-73
2023/01/11 01:21:36;;;;;;;14.43;3.80;;;;;;;0.59;100.00;96438.81;5070288;28;20805;-73
2023/01/11 01:24:03;;;;;;;13.77;5.50;;;;;;;0.80;100.00;96455.22;5070169;28;20871;-73
2023/01/11 01:26:30;;;;;;;13.93;6.60;;;;;;;0.83;100.00;96459.13;5071496;28;20440;-73
2023/01/11 01:28:56;;;;;;;6.50;3.50;;;;;;;0.74;100.00;96458.06;5070137;28;20531;-73
2023/01/11 01:31:23;;;;;;;5.23;3.80;;;;;;;0.53;100.00;96433.84;5071570;28;20575;-73
2023/01/11 01:33:50;;;;;;;4.07;2.93;;;;;;;0.61;100.00;96435.19;5053529;28;20501;-74
2023/01/11 01:36:16;;;;;;;4.43;3.03;;;;;;;0.63;100.00;96439.06;5070196;28;20456;-73
2023/01/11 01:38:43;;;;;;;6.37;4.07;;;;;;;0.70;100.00;96446.63;5070182;28;20446;-73
2023/01/11 01:41:12;;;;;;;4.90;4.30;;;;;;;0.61;100.00;96419.56;5071292;28;20420;-73
2023/01/11 01:43:47;;;;;;;5.07;3.87;;;;;;;0.70;100.00;96442.22;5057134;28;20486;-73
2023/01/11 01:46:15;;;;;;;4.10;3.07;;;;;;;0.86;100.00;96445.59;5053587;28;20853;-73
2023/01/11 01:48:48;;;;;;;5.77;2.90;;;;;;;0.61;100.00;96409.16;5071574;28;20433;-73
2023/01/11 01:51:26;;;;;;;6.10;3.83;;;;;;;0.64;100.00;96437.25;5069832;28;20463;-73
2023/01/11 01:53:56;;;;;;;4.70;3.10;;;;;;;0.76;100.00;96453.38;5069799;28;20436;-73
2023/01/11 01:56:32;;;;;;;4.07;3.13;;;;;;;0.90;100.00;96454.44;5069822;28;20466;-73
2023/01/11 01:59:07;;;;;;;4.20;2.80;;;;;;;0.86;100.00;96448.97;5053172;28;20947;-73
2023/01/11 02:01:46;;;;;;;3.80;3.03;;;;;;;0.66;100.00;96440.38;5069770;28;20523;-73
2023/01/11 02:04:27;;;;;;;4.93;2.40;;;;;;;0.66;100.00;96451.56;5069564;28;20451;-74
2023/01/11 02:06:58;;;;;;;6.53;2.43;;;;;;;0.65;100.00;96446.63;5069639;28;20436;-74
2023/01/11 02:09:32;;;;;;;5.57;3.40;;;;;;;0.37;100.00;96416.69;5069590;28;20441;-73
2023/01/11 02:12:00;;;;;;;3.60;2.43;;;;;;;0.57;100.00;96440.13;5082431;28;20501;-73
2023/01/11 02:14:31;;;;;;;7.47;2.87;;;;;;;0.66;100.00;96437.78;5083181;28;20428;-73
2023/01/11 02:16:58;;;;;;;3.10;2.57;;;;;;;0.78;100.00;96436.47;5070858;28;20439;-73
2023/01/11 02:19:33;;;;;;;4.70;2.40;;;;;;;0.59;100.00;96392.00;5075847;28;20424;-73
2023/01/11 02:22:37;;;;;;;3.60;2.60;;;;;;;0.91;100.00;96427.38;5069671;28;20494;-73
2023/01/11 02:25:31;;;;;;;5.27;2.73;;;;;;;0.79;100.00;96414.63;5069637;28;20813;-73
2023/01/11 02:28:21;;;;;;;2.93;2.73;;;;;;;0.76;100.00;96399.53;5069447;28;20538;-74
2023/01/11 02:31:00;;;;;;;5.53;3.27;;;;;;;0.93;100.00;96409.66;5056873;28;20436;-73
2023/01/11 02:33:30;;;;;;;4.93;2.70;;;;;;;0.84;100.00;96416.44;5069343;28;20428;-73
2023/01/11 02:36:15;;;;;;;5.10;4.60;;;;;;;0.84;100.00;96417.22;5069369;28;20451;-73
2023/01/11 02:38:51;;;;;;;5.73;3.60;;;;;;;0.75;100.00;96412.81;5070565;28;20427;-73
2023/01/11 02:45:00;;;;;;;4.43;2.83;;;;;;;0.75;100.00;96402.41;5070604;28;20913;-73
2023/01/11 02:47:30;;;;;;;2.70;2.47;;;;;;;0.69;100.00;96395.66;5059617;28;20442;-73
2023/01/11 02:50:15;;;;;;;3.03;2.60;;;;;;;0.70;100.00;96384.19;5069213;28;20438;-73
2023/01/11 02:53:08;;;;;;;3.33;2.77;;;;;;;0.44;100.00;96337.38;5069033;28;20495;-73
2023/01/11 02:55:42;;;;;;;4.70;2.80;;;;;;;0.87;100.00;96382.88;4999837;28;20573;-73
2023/01/11 02:58:11;;;;;;;5.43;3.60;;;;;;;0.72;100.00;96382.88;5067965;28;20539;-73
2023/01/11 03:00:39;;;;;;;4.70;3.00;;;;;;;0.74;100.00;96374.81;5073385;28;20439;-73
2023/01/11 03:03:29;;;;;;;3.93;3.30;;;;;;;0.63;100.00;96375.88;5068772;28;21003;-73
2023/01/11 03:06:03;;;;;;;5.17;3.23;;;;;;;0.76;100.00;96364.94;5069218;28;20459;-73
2023/01/11 03:08:43;;;;;;;4.73;3.77;;;;;;;0.71;100.00;96375.34;5070506;28;20416;-73
2023/01/11 03:14:54;;;;;;;2.90;2.70;;;;;;;0.76;100.00;96368.31;5070569;28;20436;-73
2023/01/11 03:17:26;;;;;;;6.53;3.07;;;;;;;0.75;100.00;96363.38;4968902;28;20579;-73
2023/01/11 03:20:00;;;;;;;7.67;3.20;;;;;;;0.75;100.00;96358.16;5073377;28;20534;-73
2023/01/11 03:22:36;;;;;;;5.33;3.33;;;;;;;0.51;100.00;96318.91;5056044;28;20444;-73
2023/01/11 03:25:15;;;;;;;5.43;3.40;;;;;;;0.83;100.00;96339.44;5073861;28;20440;-73
2023/01/11 03:28:01;;;;;;;4.83;3.33;;;;;;;0.60;100.00;96301.75;5061023;28;20471;-73
2023/01/11 03:30:27;;;;;;;5.67;4.00;;;;;;;0.81;100.00;96336.31;5072564;28;20433;-73
2023/01/11 03:33:03;;;;;;;6.70;3.00;;;;;;;0.82;100.00;96314.44;5074212;28;20451;-73
2023/01/11 03:35:39;;;;;;;3.23;3.00;;;;;;;0.91;100.00;96327.69;5055876;28;21026;-73
2023/01/11 03:38:16;;;;;;;6.60;3.47;;;;;;;0.72;100.00;96320.44;5072403;28;20439;-73
2023/01/11 03:40:52;;;;;;;4.10;3.70;;;;;;;0.71;100.00;96305.09;5073698;28;20792;-73
2023/01/11 03:43:22;;;;;;;4.37;3.97;;;;;;;0.76;100.00;96311.06;5055714;28;20446;-73
2023/01/11 03:45:56;;;;;;;9.93;4.47;;;;;;;0.61;100.00;96285.09;5073606;28;20454;-73
2023/01/11 03:49:09;;;;;;;5.23;4.27;;;;;;;0.85;100.00;96304.28;5055794;28;20433;-74
2023/01/11 03:51:41;;;;;;;4.93;3.30;;;;;;;0.72;100.00;96285.84;4959397;28;20464;-73
2023/01/11 03:54:13;;;;;;;7.37;4.27;;;;;;;0.97;100.00;96318.84;4959599;28;21000;-73
2023/01/11 03:56:48;;;;;;;4.80;4.43;;;;;;;0.86;100.00;96294.66;4991874;28;20946;-73
2023/01/11 03:59:15;;;;;;;3.80;3.50;;;;;;;0.68;100.00;96287.44;4975681;28;20435;-73
2023/01/11 04:01:42;;;;;;;4.20;3.80;;;;;;;0.92;100.00;96309.19;4975619;28;20436;-73
2023/01/11 04:04:09;;;;;;;5.13;3.70;;;;;;;0.79;100.00;96286.34;4964888;28;20835;-73
2023/01/11 04:06:38;;;;;;;4.83;4.30;;;;;;;0.88;100.00;96287.38;4991752;28;20456;-73
2023/01/11 04:09:05;;;;;;;5.33;4.03;;;;;;;0.97;100.00;96296.19;4992505;28;20436;-73
2023/01/11 04:11:32;;;;;;;6.70;4.17;;;;;;;0.66;100.00;96255.66;4976054;28;20460;-73
2023/01/11 04:14:00;;;;;;;5.30;4.80;;;;;;;0.72;100.00;96254.63;4975364;28;20479;-73
2023/01/11 04:16:26;;;;;;;7.40;3.90;;;;;;;0.91;100.00;96302.44;4959289;28;20521;-73
2023/01/11 04:18:53;;;;;;;10.23;4.83;;;;;;;0.86;100.00;96282.44;4970799;28;20520;-73
2023/01/11 04:21:20;;;;;;;6.30;4.30;;;;;;;0.89;100.00;96288.91;4998370;28;20440;-73
2023/01/11 04:23:47;;;;;;;8.33;4.67;;;;;;;0.80;100.00;96272.28;5069228;28;20440;-73
2023/01/11 04:26:16;;;;;;;4.27;3.87;;;;;;;0.93;100.00;96284.72;5073484;28;20866;-73
2023/01/11 04:28:43;;;;;;;6.13;4.50;;;;;;;0.93;100.00;96287.34;5071645;28;20486;-73
2023/01/11 04:31:10;;;;;;;5.93;4.63;;;;;;;0.91;100.00;96273.81;5071914;28;20849;-73
2023/01/11 04:33:37;;;;;;;5.00;4.43;;;;;;;0.91;100.00;96268.59;5055101;28;20436;-73
2023/01/11 04:36:09;;;;;;;7.13;4.50;;;;;;;1.00;100.00;96269.63;5071224;28;20461;-73
2023/01/11 04:38:36;;;;;;;5.50;4.20;;;;;;;0.75;100.00;96241.88;5071327;28;20501;-73
2023/01/11 04:43:56;;;;;;;6.97;5.97;;;;;;;0.91;100.00;96253.00;5064497;28;20440;-73
2023/01/11 04:46:23;;;;;;;10.27;5.20;;;;;;;0.98;100.00;96274.31;5071377;28;20452;-74
2023/01/11 04:48:52;;;;;;;8.10;4.70;;;;;;;0.78;100.00;96240.53;5071230;28;20424;-74
2023/01/11 04:51:18;;;;;;;8.20;4.90;;;;;;;0.89;100.00;96252.47;5054664;28;20432;-74
2023/01/11 04:53:50;;;;;;;8.80;6.23;;;;;;;0.92;100.00;96262.34;5071165;28;20423;-73
2023/01/11 04:56:17;;;;;;;6.03;5.37;;;;;;;0.93;100.00;96252.72;5054457;28;20455;-73
2023/01/11 04:58:45;;;;;;;5.27;4.80;;;;;;;0.93;100.00;96266.50;5070966;28;21000;-73
2023/01/11 05:01:16;;;;;;;5.87;5.40;;;;;;;1.02;100.00;96271.97;5070572;28;20436;-73
2023/01/11 05:04:07;;;;;;;5.20;4.80;;;;;;;1.06;100.00;96275.59;5072283;28;20438;-73
2023/01/11 05:06:34;;;;;;;5.97;5.43;;;;;;;0.84;100.00;96247.31;4990295;28;20531;-73
2023/01/11 05:09:01;;;;;;;8.20;5.50;;;;;;;0.81;100.00;96251.22;5004978;28;20478;-73
2023/01/11 05:11:28;;;;;;;5.73;5.23;;;;;;;0.85;100.00;96262.66;4993336;28;20475;-73
2023/01/11 05:13:58;;;;;;;6.40;5.70;;;;;;;0.97;100.00;96285.78;4977364;28;20432;-73
2023/01/11 05:16:25;;;;;;;5.70;5.30;;;;;;;0.94;100.00;96275.91;4993347;28;20677;-74
2023/01/11 05:18:57;;;;;;;6.30;4.80;;;;;;;0.96;100.00;96273.81;5010421;28;20430;-74
2023/01/11 05:21:28;;;;;;;6.63;6.00;;;;;;;0.98;100.00;96281.34;4993464;28;20469;-74
2023/01/11 05:23:54;;;;;;;7.77;5.17;;;;;;;0.72;100.00;96231.22;4993347;28;20866;-74
2023/01/11 05:26:25;;;;;;;6.63;6.03;;;;;;;0.96;100.00;96276.41;5009743;28;20881;-74
2023/01/11 05:28:54;;;;;;;7.63;5.90;;;;;;;0.98;100.00;96261.31;4993138;28;21012;-73
2023/01/11 05:31:21;;;;;;;7.50;6.80;;;;;;;0.95;100.00;96259.25;5009426;28;20934;-74
2023/01/11 05:33:48;;;;;;;7.90;5.10;;;;;;;0.84;100.00;96263.69;5009568;28;20780;-74
2023/01/11 05:36:20;;;;;;;11.00;6.93;;;;;;;0.87;100.00;96242.34;5009412;28;20573;-74
2023/01/11 05:38:49;;;;;;;7.03;6.20;;;;;;;0.78;100.00;96227.53;4992671;28;20426;-74
2023/01/11 05:41:17;;;;;;;9.70;6.87;;;;;;;1.00;100.00;96267.03;4977013;28;20440;-74
2023/01/11 05:46:32;;;;;;;6.30;5.70;;;;;;;0.98;100.00;96250.13;5070027;28;20539;-73
2023/01/11 05:48:58;;;;;;;10.53;9.50;;;;;;;0.87;100.00;96228.56;5070174;28;20435;-73
2023/01/11 05:51:29;;;;;;;8.57;6.40;;;;;;;0.67;100.00;96215.59;5071343;28;20774;-73
2023/01/11 05:53:56;;;;;;;7.47;6.73;;;;;;;0.78;100.00;96233.53;5070215;28;20562;-74
2023/01/11 05:56:23;;;;;;;6.37;5.87;;;;;;;0.86;100.00;96242.63;5071344;28;20505;-72
2023/01/11 05:58:51;;;;;;;13.37;6.73;;;;;;;0.54;100.00;96190.97;5053499;28;20475;-73
2023/01/11 06:01:19;;;;;;;10.63;6.23;;;;;;;0.88;100.00;96217.88;5057944;28;20456;-73
2023/01/11 06:03:46;;;;;;;7.50;5.17;;;;;;;1.11;100.00;96233.94;5070406;28;20512;-73
2023/01/11 06:06:13;;;;;;;5.60;5.10;;;;;;;1.09;100.00;96236.03;5056573;28;20445;-73
2023/01/11 06:08:40;;;;;;;8.70;7.20;;;;;;;1.11;100.00;96233.94;5059459;28;20529;-73
2023/01/11 06:11:07;;;;;;;9.93;7.57;;;;;;;1.05;100.00;96209.72;5074165;28;20510;-73
2023/01/11 06:13:33;;;;;;;7.63;6.90;;;;;;;1.29;100.00;96233.31;5078959;28;20453;-72
2023/01/11 06:16:06;;;;;;;7.53;6.57;;;;;;;1.30;100.00;96231.47;5053439;28;20483;-74
2023/01/11 06:18:36;;;;;;;7.23;5.53;;;;;;;1.06;100.00;96194.88;5094550;28;20474;-77
2023/01/11 06:21:03;;;;;;;7.90;6.37;;;;;;;1.37;100.00;96237.19;5082473;28;20447;-76
2023/01/11 06:23:35;;;;;;;6.57;6.00;;;;;;;1.19;100.00;96192.47;5078241;28;20441;-73
2023/01/11 06:26:05;;;;;;;6.03;5.53;;;;;;;1.32;100.00;96230.16;5071409;28;20436;-74
2023/01/11 06:28:32;;;;;;;8.23;6.30;;;;;;;1.10;100.00;96199.31;5053613;28;20458;-72
2023/01/11 06:30:59;;;;;;;7.33;6.10;;;;;;;1.12;100.00;96205.03;5081213;28;20547;-72
2023/01/11 06:33:27;;;;;;;6.10;5.43;;;;;;;1.27;100.00;96235.41;5067915;28;20482;-73
2023/01/11 06:35:55;;;;;;;8.33;6.53;;;;;;;1.38;100.00;96231.69;5042059;28;20976;-72
2023/01/11 06:38:23;;;;;;;7.60;5.60;;;;;;;1.35;100.00;96234.84;5067234;28;20436;-72
2023/01/11 06:40:59;;;;;;;6.37;5.83;;;;;;;1.39;100.00;96232.47;5060789;28;21008;-73
2023/01/11 06:43:27;;;;;;;5.67;5.17;;;;;;;1.38;100.00;96225.72;5039811;28;20534;-72
2023/01/11 06:45:54;;;;;;;6.43;5.83;;;;;;;1.52;100.00;96231.09;5071026;28;20440;-72
2023/01/11 06:48:22;;;;;;;6.57;5.83;;;;;;;1.47;100.00;96231.91;5039708;28;20447;-72
2023/01/11 06:50:51;;;;;;;8.60;5.63;;;;;;;1.31;100.00;96214.81;5061276;28;20524;-72
2023/01/11 06:53:18;;;;;;;6.60;5.93;;;;;;;1.40;100.00;96223.63;5071995;28;20858;-73
2023/01/11 06:55:49;;;;;;;7.17;6.13;;;;;;;1.34;100.00;96224.69;5073375;28;20491;-73
2023/01/11 06:58:16;;;;;;;6.67;6.07;;;;;;;1.29;100.00;96233.31;5073629;28;20443;-74
2023/01/11 07:00:43;;;;;;;6.33;5.33;;;;;;;1.31;100.00;96227.81;5073430;28;20497;-73
2023/01/11 07:03:10;;;;;;;6.30;5.73;;;;;;;1.43;100.00;96249.13;5059841;28;20432;-73
2023/01/11 07:05:38;;;;;;;8.10;6.27;;;;;;;1.19;100.00;96215.91;5073265;28;20486;-74
2023/01/11 07:08:05;;;;;;;7.13;6.07;;;;;;;1.28;100.00;96229.16;5060527;28;20432;-73
2023/01/11 07:10:32;;;;;;;7.13;6.43;;;;;;;1.42;100.00;96243.13;5060901;28;20844;-73
2023/01/11 07:12:58;;;;;;;11.43;6.03;;;;;;;1.39;100.00;96248.09;5086817;28;20470;-73
2023/01/11 07:15:25;;;;;;;6.60;5.80;;;;;;;1.22;100.00;96222.41;5071930;28;20452;-73
2023/01/11 07:17:56;;;;;;;6.10;5.60;;;;;;;1.36;100.00;96241.59;5060791;28;21027;-74
2023/01/11 07:20:23;;;;;;;8.20;6.40;;;;;;;1.45;100.00;96247.78;5051643;28;20436;-74
2023/01/11 07:22:50;;;;;;;6.70;6.10;;;;;;;1.35;100.00;96234.84;5074111;28;20438;-73
2023/01/11 07:25:17;;;;;;;7.90;7.10;;;;;;;1.41;100.00;96238.19;5063449;28;20485;-73
2023/01/11 07:27:44;;;;;;;6.47;5.87;;;;;;;1.18;100.00;96216.94;5072762;28;20436;-73
2023/01/11 07:30:11;;;;;;;7.73;6.30;;;;;;;1.06;100.00;96197.50;5063071;28;20437;-74
2023/01/11 07:32:38;;;;;;;10.17;6.90;;;;;;;0.94;100.00;96171.81;5055896;28;20471;-73
2023/01/11 07:35:05;;;;;;;7.73;6.97;;;;;;;1.14;100.00;96186.53;5056193;28;20560;-73
2023/01/11 07:37:33;;;;;;;7.33;5.70;;;;;;;1.04;100.00;96165.75;5064160;28;20436;-74
2023/01/11 07:39:59;;;;;;;7.20;6.60;;;;;;;1.17;100.00;96202.38;5069235;28;20998;-74
2023/01/11 07:45:11;;;;;;;8.50;7.27;;;;;;;1.11;100.00;96207.91;5060220;28;20442;-75
2023/01/11 07:47:38;;;;;;;8.87;7.93;;;;;;;1.24;100.00;96196.09;5073853;28;20434;-73
2023/01/11 07:50:05;;;;;;;8.87;7.10;;;;;;;1.16;100.00;96200.03;5049611;28;20445;-74
2023/01/11 07:52:32;;;;;;;7.60;6.97;;;;;;;1.28;100.00;96197.13;5052207;28;20461;-73
2023/01/11 07:55:01;;;;;;;13.63;9.80;;;;;;;1.20;100.00;96185.44;5073278;28;20502;-74
2023/01/11 07:57:29;;;;;;;8.57;7.70;;;;;;;1.35;100.00;96210.63;5042410;28;20767;-74
2023/01/11 07:59:56;;;;;;;7.53;6.83;;;;;;;1.02;100.00;96152.22;5058803;28;20432;-74
2023/01/11 08:02:22;;;;;;;8.13;6.70;;;;;;;1.36;100.00;96191.34;5058356;28;20653;-74
2023/01/11 08:04:49;;;;;;;8.27;7.13;;;;;;;1.16;100.00;96176.63;5048339;28;20469;-74
2023/01/11 08:07:16;;;;;;;7.40;6.40;;;;;;;1.51;100.00;96217.28;5065984;28;20442;-73
2023/01/11 08:09:42;;;;;;;8.23;7.40;;;;;;;1.21;100.00;96186.25;5072042;28;20436;-73
2023/01/11 08:14:54;;;;;;;7.20;6.40;;;;;;;1.51;100.00;96216.53;5061399;28;20465;-73
2023/01/11 08:17:21;;;;;;;7.73;6.87;;;;;;;1.31;100.00;96192.16;5065007;28;20468;-74
2023/01/11 08:19:48;;;;;;;7.73;7.03;;;;;;;1.30;100.00;96197.63;5071748;28;20420;-74
2023/01/11 08:22:16;;;;;;;7.03;6.37;;;;;;;1.34;100.00;96196.84;5058014;28;20531;-74
2023/01/11 08:24:43;;;;;;;8.57;6.80;;;;;;;1.41;100.00;96199.91;5061042;28;20507;-73
2023/01/11 08:27:10;;;;;;;6.83;6.23;;;;;;;1.45;100.00;96184.50;5070337;28;20428;-74
2023/01/11 08:29:38;;;;;;;9.10;5.70;;;;;;;1.41;100.00;96167.88;5072914;28;20424;-74
2023/01/11 08:32:05;;;;;;;7.83;6.50;;;;;;;1.49;100.00;96182.94;5074687;28;20440;-74
2023/01/11 08:34:33;;;;;;;7.17;6.47;;;;;;;1.64;100.00;96195.06;5060056;28;20476;-74
2023/01/11 08:37:00;;;;;;;6.37;5.87;;;;;;;1.30;100.00;96145.53;5066344;28;20417;-74
2023/01/11 08:39:31;;;;;;;9.60;6.90;;;;;;;1.52;100.00;96168.56;5063229;28;20440;-74
2023/01/11 08:41:58;;;;;;;6.20;5.70;;;;;;;1.70;100.00;96189.53;5072862;28;20405;-74
2023/01/11 08:44:25;;;;;;;6.27;5.67;;;;;;;1.48;100.00;96156.09;5042077;28;20433;-73
2023/01/11 08:47:01;;;;;;;6.37;5.87;;;;;;;1.75;100.00;96193.94;5043131;28;20438;-74
2023/01/11 08:49:29;;;;;;;5.87;5.33;;;;;;;1.58;100.00;96164.88;5070313;28;20428;-74
2023/01/11 08:51:56;;;;;;;7.60;6.77;;;;;;;1.63;100.00;96170.06;5059312;28;20444;-74
2023/01/11 08:54:23;;;;;;;5.50;5.00;;;;;;;1.86;100.00;96187.56;5059828;28;20472;-74
2023/01/11 08:56:50;;;;;;;6.57;4.57;;;;;;;1.94;100.00;96194.81;5072454;28;20970;-74
2023/01/11 08:59:18;;;;;;;6.30;5.73;;;;;;;1.85;100.00;96180.81;5041149;28;20440;-74
2023/01/11 09:01:45;;;;;;;5.90;5.50;;;;;;;2.01;100.00;96197.91;5064056;28;20431;-74
2023/01/11 09:04:13;;;;;;;7.30;5.13;;;;;;;1.83;100.00;96150.88;5066216;28;20416;-74
2023/01/11 09:06:52;;;;;;;5.20;3.97;;;;;;;2.01;100.00;96190.06;5060655;28;20465;-74
2023/01/11 09:09:19;;;;;;;8.97;6.50;;;;;;;1.83;100.00;96153.47;5064075;28;20448;-74
2023/01/11 09:11:55;;;;;;;9.60;6.20;;;;;;;1.92;100.00;96159.66;5072863;28;20437;-73
2023/01/11 09:14:24;;;;;;;18.37;9.73;;;;;;;2.14;100.00;96183.44;5065810;28;20496;-74
2023/01/11 09:16:53;;;;;;;24.00;14.07;;;;;;;2.15;100.00;96171.97;5063393;28;20477;-74
2023/01/11 09:19:20;;;;;;;25.67;11.30;;;;;;;2.25;100.00;96179.66;5073839;28;20442;-74
2023/01/11 09:21:47;;;;;;;17.00;9.33;;;;;;;2.22;100.00;96182.81;5064030;28;20856;-74
2023/01/11 09:24:14;;;;;;;9.30;6.70;;;;;;;2.08;100.00;96153.25;5070473;28;20460;-74
2023/01/11 09:26:42;;;;;;;13.27;8.53;;;;;;;2.15;100.00;96158.91;5071709;28;20770;-75
2023/01/11 09:29:09;;;;;;;14.97;8.90;;;;;;;2.40;100.00;96186.53;5070436;28;20435;-74
2023/01/11 09:31:36;;;;;;;19.87;10.97;;;;;;;2.40;100.00;96188.38;5058402;28;20421;-74
2023/01/11 09:34:05;;;;;;;21.73;10.97;;;;;;;2.43;100.00;96193.84;5071497;28;20577;-74
2023/01/11 09:36:34;;;;;;;14.07;9.40;;;;;;;2.41;100.00;96189.97;5075856;28;20513;-74
2023/01/11 09:39:06;;;;;;;11.47;6.90;;;;;;;2.40;100.00;96193.59;5082496;28;21329;-74
2023/01/11 09:41:52;;;;;;;12.20;7.60;;;;;;;2.49;100.00;96191.94;5068333;28;20433;-74
2023/01/11 09:44:24;;;;;;;10.80;9.60;;;;;;;2.50;100.00;96193.50;5061678;28;20440;-74
2023/01/11 09:47:16;;;;;;;9.93;6.17;;;;;;;2.49;100.00;96192.72;5057924;28;20515;-74
2023/01/11 09:49:49;;;;;;;13.00;7.77;;;;;;;2.43;100.00;96162.53;5039897;28;20433;-74
2023/01/11 09:52:32;;;;;;;8.97;6.90;;;;;;;2.64;100.00;96173.50;5063214;28;21008;-74
2023/01/11 09:55:00;;;;;;;11.27;8.60;;;;;;;2.61;100.00;96174.06;5064214;28;20454;-74
2023/01/11 09:57:42;;;;;;;16.30;9.07;;;;;;;2.85;100.00;96190.50;5046110;28;20454;-74
2023/01/11 10:00:12;;;;;;;11.10;7.10;;;;;;;2.81;100.00;96188.72;5070104;28;20916;-74
2023/01/11 10:02:52;;;;;;;7.70;5.17;;;;;;;2.85;100.00;96187.88;5057916;28;20449;-74
2023/01/11 10:05:50;;;;;;;9.03;6.60;;;;;;;2.88;100.00;96186.53;5060740;28;20441;-74
2023/01/11 10:08:37;;;;;;;7.53;4.90;;;;;;;2.86;100.00;96175.59;5059251;28;20918;-73
2023/01/11 10:11:40;;;;;;;10.70;6.00;;;;;;;2.87;100.00;96146.59;5066742;28;20442;-74
2023/01/11 10:14:56;;;;;;;14.40;7.33;;;;;;;2.98;100.00;96160.31;5049527;28;20469;-74
2023/01/11 10:18:02;;;;;;;5.13;4.17;;;;;;;3.08;100.00;96162.78;5056826;28;20430;-73
2023/01/11 10:21:06;;;;;;;11.77;7.67;;;;;;;2.88;100.00;96124.66;5063209;28;20429;-74
2023/01/11 10:23:49;;;;;;;10.23;6.30;;;;;;;3.07;100.00;96147.38;5062813;28;20872;-74
2023/01/11 10:26:31;;;;;;;8.30;6.07;;;;;;;3.30;100.00;96170.03;5043739;28;20451;-74
2023/01/11 10:32:33;;;;;;;12.03;6.70;;;;;;;3.11;100.00;96140.56;5056180;28;20433;-74
2023/01/11 10:40:30;;;;;;;5.20;4.17;;;;;;;3.49;100.00;96168.22;5069405;28;20480;-74
2023/01/11 10:43:03;;;;;;;8.10;6.10;;;;;;;3.53;100.00;96163.97;5069773;28;20423;-74
2023/01/11 10:45:43;;;;;;;6.80;4.50;;;;;;;3.47;100.00;96149.44;5059436;28;20448;-74
2023/01/11 10:48:17;;;;;;;8.40;6.30;;;;;;;3.35;100.00;96122.97;5042433;28;20451;-74
2023/01/11 10:51:05;;;;;;;5.10;4.60;;;;;;;3.57;100.00;96153.72;5070945;28;20892;-74
2023/01/11 10:53:49;;;;;;;4.20;3.80;;;;;;;3.61;100.00;96141.63;5057215;28;20971;-74
2023/01/11 10:56:49;;;;;;;4.23;3.60;;;;;;;3.76;100.00;96146.63;5065767;28;20457;-74
2023/01/11 10:59:42;;;;;;;5.53;3.77;;;;;;;3.79;100.00;96135.59;5062736;28;20984;-74
2023/01/11 11:02:35;;;;;;;3.03;2.83;;;;;;;3.79;100.00;96132.97;5061375;28;20927;-74
2023/01/11 11:05:25;;;;;;;4.83;3.50;;;;;;;3.81;100.00;96132.69;5040036;28;20894;-74
2023/01/11 11:07:58;;;;;;;3.27;2.97;;;;;;;3.86;100.00;96135.97;5064715;28;20495;-74
2023/01/11 11:10:43;;;;;;;4.60;3.80;;;;;;;3.92;100.00;96128.84;5063650;28;20452;-74
2023/01/11 11:13:28;;;;;;;3.77;2.93;;;;;;;3.97;100.00;96120.09;5072002;28;20461;-74
2023/01/11 11:16:07;;;;;;;3.70;3.30;;;;;;;4.06;100.00;96129.63;5067897;28;20479;-74
2023/01/11 11:18:34;;;;;;;3.47;3.17;;;;;;;3.81;100.00;96075.16;5057002;28;20435;-73
2023/01/11 11:21:18;;;;;;;6.20;3.53;;;;;;;3.89;100.00;96095.41;5063059;28;20460;-74
2023/01/11 11:23:50;;;;;;;3.40;3.10;;;;;;;4.10;100.00;96101.03;5062748;28;20520;-74
2023/01/11 11:26:19;;;;;;;3.50;3.00;;;;;;;3.94;100.00;96071.78;5061620;28;20476;-74
2023/01/11 11:29:01;;;;;;;6.57;3.20;;;;;;;3.95;100.00;96060.25;5047739;28;20445;-74
2023/01/11 11:31:29;;;;;;;4.90;3.70;;;;;;;3.83;100.00;96046.88;5063246;28;20812;-74
2023/01/11 11:33:57;;;;;;;4.27;3.87;;;;;;;4.04;100.00;96061.13;5069152;28;20468;-74
2023/01/11 11:36:24;;;;;;;3.23;3.00;;;;;;;4.21;100.00;96083.31;5071156;28;20601;-74
2023/01/11 11:39:08;;;;;;;5.60;3.60;;;;;;;4.20;100.00;96079.16;5064806;28;20443;-76
2023/01/11 11:41:50;;;;;;;4.97;3.37;;;;;;;4.21;100.00;96080.69;5066037;28;20469;-74
2023/01/11 11:44:23;;;;;;;7.43;3.53;;;;;;;4.19;100.00;96060.06;5065132;28;20541;-74
2023/01/11 11:47:00;;;;;;;3.30;3.00;;;;;;;4.20;100.00;96055.59;5056315;28;20490;-74
2023/01/11 11:49:29;;;;;;;2.80;2.60;;;;;;;4.17;100.00;96048.34;5054386;28;20491;-74
2023/01/11 11:51:58;;;;;;;3.87;3.47;;;;;;;4.13;100.00;96040.28;5063084;28;20990;-74
2023/01/11 11:54:36;;;;;;;6.10;3.10;;;;;;;4.20;100.00;96039.91;5073817;28;20483;-74
2023/01/11 11:57:19;;;;;;;5.00;3.10;;;;;;;3.98;100.00;96012.59;5072563;28;20463;-75
2023/01/11 11:59:48;;;;;;;11.87;7.90;;;;;;;4.20;100.00;96038.06;5056013;28;20483;-74
2023/01/11 12:02:29;;;;;;;38.20;20.43;;;;;;;4.00;100.00;96002.59;5056030;28;20443;-75
2023/01/11 12:04:58;;;;;;;28.67;14.10;;;;;;;4.11;100.00;96018.88;5096645;28;20515;-75
2023/01/11 12:07:33;;;;;;;17.00;9.50;;;;;;;4.14;100.00;96013.88;5082097;28;20463;-75
2023/01/11 12:10:12;;;;;;;24.40;13.10;;;;;;;3.93;100.00;95986.53;5092606;28;20444;-76
2023/01/11 12:12:51;;;;;;;24.37;10.30;;;;;;;4.02;100.00;95984.03;5059170;28;20444;-74
2023/01/11 12:15:20;;;;;;;14.77;8.20;;;;;;;4.20;100.00;96008.50;5072670;28;20513;-74
2023/01/11 12:17:47;;;;;;;9.77;6.80;;;;;;;4.08;100.00;95986.25;5060084;28;20983;-74
2023/01/11 12:20:32;;;;;;;6.77;4.53;;;;;;;4.12;100.00;96002.13;5077460;28;20866;-74
2023/01/11 12:23:20;;;;;;;7.17;5.63;;;;;;;4.11;100.00;95992.72;5055364;28;20447;-74
2023/01/11 12:25:59;;;;;;;9.67;5.90;;;;;;;4.23;100.00;96011.31;5058698;28;20460;-74
2023/01/11 12:28:55;;;;;;;6.07;4.60;;;;;;;4.22;100.00;96009.75;5077329;28;20493;-74
2023/01/11 12:31:43;;;;;;;4.10;3.70;;;;;;;4.14;100.00;96002.63;5071774;28;20432;-74
2023/01/11 12:34:31;;;;;;;8.33;4.73;;;;;;;4.25;100.00;95998.72;5059904;28;20518;-74